createdAt,value
2018-05-09T00:01:58.364Z,27.27
2018-05-09T00:04:27.872Z,20.23
2018-05-09T00:06:56.524Z,12.83
2018-05-09T00:09:26.133Z,15.77
2018-05-09T00:11:54.753Z,16.13
2018-05-09T00:14:23.963Z,16.17
2018-05-09T00:16:53.263Z,17.67
2018-05-09T00:19:22.502Z,18.80
2018-05-09T00:21:51.826Z,19.30
2018-05-09T00:24:20.465Z,19.97
2018-05-09T00:26:49.975Z,19.87
2018-05-09T00:29:18.615Z,21.10
2018-05-09T00:31:47.158Z,16.33
2018-05-09T00:34:16.595Z,16.80
2018-05-09T00:36:45.151Z,16.13
2018-05-09T00:39:14.099Z,19.87
2018-05-09T00:41:43.615Z,25.20
2018-05-09T00:44:12.480Z,21.20
2018-05-09T00:46:41.697Z,27.37
2018-05-09T00:49:10.450Z,28.33
2018-05-09T00:51:39.734Z,33.60
2018-05-09T00:54:36.748Z,84.30
2018-05-09T00:57:06.480Z,62.53
2018-05-09T00:59:35.192Z,89.03
2018-05-09T01:02:03.766Z,42.57
2018-05-09T01:04:33.880Z,46.13
2018-05-09T01:07:02.412Z,52.60
2018-05-09T01:09:31.713Z,50.03
2018-05-09T01:12:00.422Z,53.13
2018-05-09T01:14:30.002Z,86.27
2018-05-09T01:16:58.654Z,203.40
2018-05-09T01:19:27.288Z,149.80
2018-05-09T01:21:56.388Z,84.90
2018-05-09T01:24:25.994Z,19.10
2018-05-09T01:26:55.543Z,11.60
2018-05-09T01:29:25.103Z,9.53
2018-05-09T01:31:53.615Z,6.87
2018-05-09T01:34:22.095Z,9.87
2018-05-09T01:36:51.580Z,12.70
2018-05-09T01:39:20.292Z,11.77
2018-05-09T01:41:48.894Z,7.30
2018-05-09T01:44:17.669Z,8.53
2018-05-09T01:46:46.170Z,11.30
2018-05-09T01:49:14.760Z,12.20
2018-05-09T01:51:43.266Z,11.07
2018-05-09T01:54:12.653Z,9.07
2018-05-09T01:56:42.789Z,10.97
2018-05-09T01:59:11.533Z,6.30
2018-05-09T02:01:40.134Z,5.30
2018-05-09T02:04:09.547Z,7.97
2018-05-09T02:06:38.126Z,8.93
2018-05-09T02:09:06.829Z,13.30
2018-05-09T02:11:35.468Z,16.60
2018-05-09T02:14:05.017Z,16.03
2018-05-09T02:16:33.521Z,16.97
2018-05-09T02:19:02.176Z,19.40
2018-05-09T02:21:30.664Z,29.23
2018-05-09T02:23:59.543Z,38.53
2018-05-09T02:26:29.052Z,72.87
2018-05-09T02:28:58.932Z,130.33
2018-05-09T02:31:27.458Z,161.07
2018-05-09T02:33:56.867Z,64.80
2018-05-09T02:36:25.534Z,89.13
2018-05-09T02:38:54.202Z,59.43
2018-05-09T02:41:22.730Z,74.60
2018-05-09T02:43:52.034Z,144.50
2018-05-09T02:46:21.503Z,161.30
2018-05-09T02:48:49.988Z,101.80
2018-05-09T02:51:18.808Z,85.43
2018-05-09T02:53:47.396Z,103.00
2018-05-09T02:56:16.717Z,104.67
2018-05-09T02:58:46.855Z,26.83
2018-05-09T03:01:16.413Z,19.77
2018-05-09T03:03:45.843Z,41.27
2018-05-09T03:06:14.418Z,30.63
2018-05-09T03:08:43.900Z,19.40
2018-05-09T03:11:12.552Z,24.13
2018-05-09T03:13:41.102Z,35.87
2018-05-09T03:16:09.901Z,77.23
2018-05-09T03:18:38.687Z,105.33
2018-05-09T03:21:07.310Z,83.93
2018-05-09T03:23:35.993Z,79.67
2018-05-09T03:26:05.231Z,65.60
2018-05-09T03:28:34.032Z,89.63
2018-05-09T03:31:02.865Z,105.07
2018-05-09T03:33:31.501Z,61.23
2018-05-09T03:36:00.061Z,70.50
2018-05-09T03:38:28.704Z,80.13
2018-05-09T03:40:57.263Z,52.27
2018-05-09T03:43:25.847Z,34.17
2018-05-09T03:45:55.294Z,25.80
2018-05-09T03:48:23.915Z,28.27
2018-05-09T03:50:52.500Z,18.10
2018-05-09T03:53:21.098Z,44.53
2018-05-09T03:55:50.789Z,45.47
2018-05-09T03:58:19.867Z,49.23
2018-05-09T04:00:49.535Z,41.47
2018-05-09T04:03:36.043Z,51.77
2018-05-09T04:06:23.243Z,35.50
2018-05-09T04:09:09.459Z,13.60
2018-05-09T04:11:38.737Z,41.80
2018-05-09T04:14:07.337Z,27.90
2018-05-09T04:16:36.560Z,21.00
2018-05-09T04:19:05.858Z,34.00
2018-05-09T04:21:35.479Z,78.03
2018-05-09T04:24:04.780Z,42.30
2018-05-09T04:26:33.229Z,87.93
2018-05-09T04:29:02.035Z,61.23
2018-05-09T04:31:30.593Z,70.37
2018-05-09T04:33:59.175Z,54.27
2018-05-09T04:36:27.777Z,74.53
2018-05-09T04:38:56.421Z,101.50
2018-05-09T04:41:25.852Z,102.67
2018-05-09T04:43:54.518Z,41.27
2018-05-09T04:46:23.887Z,59.60
2018-05-09T04:48:53.713Z,72.50
2018-05-09T04:51:24.108Z,63.53
2018-05-09T04:53:52.714Z,59.70
2018-05-09T04:56:21.225Z,57.37
2018-05-09T04:58:50.008Z,73.53
2018-05-09T05:01:18.549Z,44.10
2018-05-09T05:03:47.214Z,65.40
2018-05-09T05:06:16.018Z,52.80
2018-05-09T05:08:44.785Z,45.83
2018-05-09T05:11:13.547Z,43.00
2018-05-09T05:13:42.357Z,30.57
2018-05-09T05:16:11.112Z,42.73
2018-05-09T05:18:39.976Z,24.23
2018-05-09T05:21:09.237Z,26.33
2018-05-09T05:23:42.408Z,20.37
2018-05-09T05:26:11.386Z,29.63
2018-05-09T05:28:40.977Z,26.30
2018-05-09T05:31:09.788Z,21.17
2018-05-09T05:33:38.596Z,15.00
2018-05-09T05:36:07.383Z,18.83
2018-05-09T05:38:35.929Z,20.53
2018-05-09T05:41:05.478Z,16.50
2018-05-09T05:43:34.319Z,13.70
2018-05-09T05:46:03.066Z,17.53
2018-05-09T05:48:32.451Z,32.13
2018-05-09T05:51:02.072Z,11.83
2018-05-09T05:53:31.283Z,12.60
2018-05-09T05:56:00.030Z,12.47
2018-05-09T05:58:28.722Z,20.47
2018-05-09T06:00:57.724Z,19.07
2018-05-09T06:03:26.362Z,13.13
2018-05-09T06:05:54.897Z,11.50
2018-05-09T06:08:23.669Z,10.33
2018-05-09T06:10:52.214Z,10.07
2018-05-09T06:13:21.494Z,11.93
2018-05-09T06:15:50.188Z,17.03
2018-05-09T06:18:18.789Z,12.73
2018-05-09T06:20:48.203Z,20.67
2018-05-09T06:23:17.084Z,14.53
2018-05-09T06:25:46.080Z,10.97
2018-05-09T06:28:14.716Z,10.10
2018-05-09T06:30:44.003Z,15.10
2018-05-09T06:33:12.609Z,10.77
2018-05-09T06:35:41.175Z,14.67
2018-05-09T06:38:09.781Z,10.83
2018-05-09T06:40:38.434Z,10.97
2018-05-09T06:43:07.071Z,9.03
2018-05-09T06:45:35.697Z,10.17
2018-05-09T06:48:04.264Z,8.90
2018-05-09T06:50:32.922Z,9.93
2018-05-09T06:53:01.482Z,10.23
2018-05-09T06:55:31.616Z,11.20
2018-05-09T06:58:01.383Z,13.97
2018-05-09T07:00:29.999Z,11.00
2018-05-09T07:02:58.749Z,10.73
2018-05-09T07:05:27.482Z,10.30
2018-05-09T07:07:56.161Z,10.60
2018-05-09T07:10:24.950Z,10.87
2018-05-09T07:12:54.133Z,10.83
2018-05-09T07:15:23.146Z,11.07
2018-05-09T07:17:52.744Z,11.90
2018-05-09T07:20:22.402Z,12.20
2018-05-09T07:22:51.182Z,11.60
2018-05-09T07:25:21.531Z,15.20
2018-05-09T07:27:52.075Z,11.57
2018-05-09T07:30:21.081Z,11.97
2018-05-09T07:32:49.771Z,12.90
2018-05-09T07:35:18.574Z,11.37
2018-05-09T07:37:48.206Z,11.87
2018-05-09T07:40:18.004Z,11.30
2018-05-09T07:42:49.028Z,12.10
2018-05-09T07:45:20.007Z,12.83
2018-05-09T07:47:50.369Z,13.73
2018-05-09T07:50:20.759Z,13.70
2018-05-09T07:52:50.499Z,11.80
2018-05-09T07:55:21.707Z,11.63
2018-05-09T07:57:50.434Z,11.90
2018-05-09T08:00:20.116Z,12.27
2018-05-09T08:02:49.764Z,11.53
2018-05-09T08:05:18.740Z,12.10
2018-05-09T08:07:47.722Z,10.97
2018-05-09T08:10:16.417Z,10.70
2018-05-09T08:12:45.112Z,13.07
2018-05-09T08:15:13.982Z,26.57
2018-05-09T08:17:43.914Z,18.23
2018-05-09T08:20:12.938Z,12.90
2018-05-09T08:22:42.115Z,11.53
2018-05-09T08:25:10.747Z,20.33
2018-05-09T08:27:39.427Z,12.67
2018-05-09T08:30:08.532Z,10.87
2018-05-09T08:32:37.347Z,14.03
2018-05-09T08:35:06.344Z,11.87
2018-05-09T08:37:35.076Z,12.87
2018-05-09T08:40:04.095Z,10.03
2018-05-09T08:42:32.928Z,10.67
2018-05-09T08:45:01.672Z,9.40
2018-05-09T08:47:30.992Z,9.57
2018-05-09T08:50:00.560Z,12.80
2018-05-09T08:52:30.466Z,9.10
2018-05-09T08:55:00.024Z,17.43
2018-05-09T08:57:29.529Z,8.17
2018-05-09T08:59:58.162Z,8.20
2018-05-09T09:02:26.829Z,7.30
2018-05-09T09:04:55.836Z,8.33
2018-05-09T09:07:26.792Z,9.00
2018-05-09T09:09:56.092Z,7.30
2018-05-09T09:12:24.785Z,6.03
2018-05-09T09:14:53.297Z,8.57
2018-05-09T09:17:22.324Z,5.07
2018-05-09T09:19:50.950Z,4.40
2018-05-09T09:22:20.798Z,5.93
2018-05-09T09:24:49.821Z,6.53
2018-05-09T09:27:19.077Z,6.63
2018-05-09T09:29:47.713Z,8.47
2018-05-09T09:32:17.091Z,5.10
2018-05-09T09:34:45.853Z,8.87
2018-05-09T09:37:15.191Z,5.70
2018-05-09T09:39:44.168Z,4.90
2018-05-09T09:42:12.946Z,5.60
2018-05-09T09:44:42.803Z,5.87
2018-05-09T09:47:11.880Z,5.17
2018-05-09T09:49:40.801Z,10.07
2018-05-09T09:52:09.805Z,6.87
2018-05-09T09:54:39.193Z,5.80
2018-05-09T09:57:09.202Z,5.53
2018-05-09T09:59:37.979Z,5.93
2018-05-09T10:02:06.681Z,5.93
2018-05-09T10:04:35.289Z,5.33
2018-05-09T10:07:03.902Z,11.10
2018-05-09T10:09:32.559Z,5.70
2018-05-09T10:12:01.207Z,8.03
2018-05-09T10:14:30.643Z,4.67
2018-05-09T10:16:59.936Z,4.13
2018-05-09T10:19:28.972Z,6.87
2018-05-09T10:21:57.986Z,8.33
2018-05-09T10:24:27.617Z,43.83
2018-05-09T10:26:57.606Z,6.87
2018-05-09T10:29:29.371Z,36.10
2018-05-09T10:31:58.537Z,100.87
2018-05-09T10:34:28.792Z,8.67
2018-05-09T10:36:57.491Z,7.60
2018-05-09T10:39:26.400Z,5.80
2018-05-09T10:41:55.157Z,15.17
2018-05-09T10:44:25.105Z,7.23
2018-05-09T10:46:54.397Z,8.70
2018-05-09T10:49:23.098Z,6.50
2018-05-09T10:51:52.475Z,8.93
2018-05-09T10:54:22.389Z,9.93
2018-05-09T10:56:51.611Z,6.30
2018-05-09T10:59:21.095Z,5.90
2018-05-09T11:01:50.002Z,8.17
2018-05-09T11:04:18.706Z,5.67
2018-05-09T11:06:47.509Z,5.77
2018-05-09T11:09:16.047Z,7.43
2018-05-09T11:11:45.552Z,22.93
2018-05-09T11:14:15.611Z,4.53
2018-05-09T11:16:45.005Z,5.63
2018-05-09T11:19:14.019Z,7.17
2018-05-09T11:21:44.373Z,18.80
2018-05-09T11:24:13.370Z,10.83
2018-05-09T11:26:42.459Z,13.70
2018-05-09T11:29:11.959Z,6.07
2018-05-09T11:31:40.739Z,8.70
2018-05-09T11:34:09.229Z,8.00
2018-05-09T11:36:37.842Z,7.33
2018-05-09T11:39:06.904Z,5.73
2018-05-09T11:41:35.808Z,5.23
2018-05-09T11:44:04.517Z,7.47
2018-05-09T11:46:33.407Z,6.30
2018-05-09T11:49:02.898Z,55.27
2018-05-09T11:51:32.126Z,12.77
2018-05-09T11:54:01.151Z,7.90
2018-05-09T11:56:31.192Z,5.67
2018-05-09T11:59:00.807Z,7.93
2018-05-09T12:01:29.634Z,13.43
2018-05-09T12:03:58.737Z,9.43
2018-05-09T12:06:28.156Z,9.00
2018-05-09T12:08:57.526Z,8.13
2018-05-09T12:11:27.557Z,8.53
2018-05-09T12:13:58.004Z,8.53
2018-05-09T12:16:27.391Z,5.30
2018-05-09T12:18:58.048Z,6.47
2018-05-09T12:21:27.069Z,10.73
2018-05-09T12:23:57.244Z,7.10
2018-05-09T12:26:26.236Z,8.17
2018-05-09T12:28:54.920Z,5.10
2018-05-09T12:31:23.719Z,5.87
2018-05-09T12:33:53.114Z,5.00
2018-05-09T12:36:21.713Z,5.87
2018-05-09T12:38:50.465Z,6.00
2018-05-09T12:41:19.256Z,5.47
2018-05-09T12:43:47.922Z,4.93
2018-05-09T12:46:16.538Z,5.10
2018-05-09T12:48:45.159Z,6.17
2018-05-09T12:51:14.621Z,6.83
2018-05-09T12:53:43.914Z,5.13
2018-05-09T12:56:14.422Z,8.83
2018-05-09T12:58:44.340Z,5.70
2018-05-09T13:01:15.113Z,8.30
2018-05-09T13:03:43.957Z,9.60
2018-05-09T13:06:14.776Z,6.60
2018-05-09T13:08:45.076Z,6.37
2018-05-09T13:11:14.743Z,8.10
2018-05-09T13:13:44.215Z,5.03
2018-05-09T13:16:13.192Z,5.93
2018-05-09T13:18:42.959Z,6.70
2018-05-09T13:21:13.293Z,6.43
2018-05-09T13:23:43.851Z,7.33
2018-05-09T13:26:13.509Z,7.70
2018-05-09T13:28:42.201Z,6.90
2018-05-09T13:31:12.023Z,8.13
2018-05-09T13:33:41.786Z,6.80
2018-05-09T13:36:10.672Z,9.57
2018-05-09T13:38:41.183Z,7.20
2018-05-09T13:41:09.847Z,5.70
2018-05-09T13:43:38.441Z,10.90
2018-05-09T13:46:07.167Z,7.27
2018-05-09T13:48:35.902Z,7.53
2018-05-09T13:51:05.342Z,8.60
2018-05-09T13:53:34.950Z,6.50
2018-05-09T13:56:03.882Z,9.87
2018-05-09T13:58:32.630Z,17.07
2018-05-09T14:01:01.455Z,7.50
2018-05-09T14:03:30.360Z,8.30
2018-05-09T14:05:59.114Z,9.40
2018-05-09T14:08:27.998Z,16.87
2018-05-09T14:10:56.845Z,12.07
2018-05-09T14:13:26.368Z,8.50
2018-05-09T14:15:54.984Z,9.30
2018-05-09T14:18:24.374Z,10.57
2018-05-09T14:20:53.426Z,11.37
2018-05-09T14:23:22.833Z,12.10
2018-05-09T14:25:52.131Z,8.83
2018-05-09T14:28:20.988Z,7.67
2018-05-09T14:30:50.923Z,4.57
2018-05-09T14:33:19.796Z,6.17
2018-05-09T14:35:48.629Z,6.00
2018-05-09T14:38:17.823Z,7.33
2018-05-09T14:40:47.809Z,8.27
2018-05-09T14:43:16.966Z,10.77
2018-05-09T14:45:45.679Z,9.50
2018-05-09T14:48:15.213Z,13.67
2018-05-09T14:50:44.217Z,18.17
2018-05-09T14:53:13.235Z,16.27
2018-05-09T14:55:43.385Z,14.60
2018-05-09T14:58:13.411Z,10.60
2018-05-09T15:00:42.083Z,12.27
2018-05-09T15:03:11.709Z,24.60
2018-05-09T15:05:40.502Z,16.40
2018-05-09T15:08:09.250Z,16.27
2018-05-09T15:10:38.349Z,12.20
2018-05-09T15:13:07.045Z,8.40
2018-05-09T15:15:35.718Z,10.53
2018-05-09T15:18:04.388Z,9.93
2018-05-09T15:20:34.562Z,8.87
2018-05-09T15:23:04.168Z,9.10
2018-05-09T15:25:33.347Z,13.43
2018-05-09T15:28:03.407Z,9.90
2018-05-09T15:30:32.166Z,10.93
2018-05-09T15:33:08.451Z,9.40
2018-05-09T15:35:38.965Z,10.10
2018-05-09T15:38:11.583Z,8.43
2018-05-09T15:40:41.065Z,13.17
2018-05-09T15:43:12.496Z,8.40
2018-05-09T15:45:45.615Z,8.90
2018-05-09T15:48:20.132Z,9.20
2018-05-09T15:50:51.458Z,9.17
2018-05-09T15:53:21.591Z,65.60
2018-05-09T15:55:51.707Z,12.80
2018-05-09T15:58:21.479Z,10.73
2018-05-09T16:00:51.610Z,10.40
2018-05-09T16:03:21.581Z,14.10
2018-05-09T16:05:51.496Z,9.03
2018-05-09T16:08:20.370Z,8.10
2018-05-09T16:10:49.096Z,26.73
2018-05-09T16:13:21.529Z,39.37
2018-05-09T16:15:50.273Z,14.80
2018-05-09T16:18:19.435Z,6.80
2018-05-09T16:20:48.906Z,6.60
2018-05-09T16:23:19.673Z,16.27
2018-05-09T16:25:49.724Z,8.67
2018-05-09T16:28:18.491Z,8.10
2018-05-09T16:30:47.930Z,7.37
2018-05-09T16:33:18.089Z,79.17
2018-05-09T16:35:46.925Z,37.03
2018-05-09T16:38:17.683Z,10.73
2018-05-09T16:40:47.263Z,10.17
2018-05-09T16:43:17.395Z,42.23
2018-05-09T16:45:46.953Z,41.10
2018-05-09T16:48:15.634Z,21.57
2018-05-09T16:50:45.550Z,34.97
2018-05-09T16:53:15.358Z,11.27
2018-05-09T16:55:44.556Z,23.50
2018-05-09T16:58:13.965Z,14.33
2018-05-09T17:00:43.233Z,26.30
2018-05-09T17:03:12.792Z,10.17
2018-05-09T17:05:41.524Z,9.33
2018-05-09T17:08:10.595Z,8.20
2018-05-09T17:10:39.279Z,27.27
2018-05-09T17:13:08.391Z,109.23
2018-05-09T17:15:37.180Z,78.50
2018-05-09T17:18:08.796Z,8.13
2018-05-09T17:20:39.422Z,12.53
2018-05-09T17:23:10.743Z,10.00
2018-05-09T17:25:40.599Z,10.43
2018-05-09T17:28:10.243Z,8.80
2018-05-09T17:30:40.097Z,12.57
2018-05-09T17:33:09.039Z,12.93
2018-05-09T17:35:40.079Z,10.50
2018-05-09T17:38:09.381Z,12.43
2018-05-09T17:40:38.288Z,11.97
2018-05-09T17:43:07.056Z,11.30
2018-05-09T17:45:37.520Z,10.47
2018-05-09T17:48:06.172Z,10.53
2018-05-09T17:50:35.285Z,8.40
2018-05-09T17:53:05.088Z,10.50
2018-05-09T17:55:34.190Z,9.53
2018-05-09T17:58:03.212Z,10.70
2018-05-09T18:00:32.151Z,10.67
2018-05-09T18:03:00.842Z,16.07
2018-05-09T18:05:29.551Z,18.93
2018-05-09T18:07:58.299Z,19.90
2018-05-09T18:10:27.027Z,14.80
2018-05-09T18:12:57.733Z,8.93
2018-05-09T18:15:26.343Z,9.37
2018-05-09T18:17:54.946Z,8.20
2018-05-09T18:20:23.782Z,10.17
2018-05-09T18:22:52.970Z,8.93
2018-05-09T18:25:22.442Z,11.60
2018-05-09T18:27:52.567Z,12.30
2018-05-09T18:30:22.113Z,10.50
2018-05-09T18:32:51.549Z,10.30
2018-05-09T18:35:21.062Z,10.20
2018-05-09T18:37:52.454Z,9.37
2018-05-09T18:40:21.140Z,10.80
2018-05-09T18:42:50.585Z,13.37
2018-05-09T18:45:19.203Z,10.23
2018-05-09T18:47:48.794Z,11.17
2018-05-09T18:50:18.674Z,11.90
2018-05-09T18:52:49.206Z,11.47
2018-05-09T18:55:19.216Z,11.97
2018-05-09T18:57:48.807Z,10.90
2018-05-09T19:00:19.464Z,10.60
2018-05-09T19:02:48.608Z,12.60
2018-05-09T19:05:17.254Z,11.40
2018-05-09T19:07:45.931Z,10.80
2018-05-09T19:10:16.269Z,10.60
2018-05-09T19:12:45.170Z,9.00
2018-05-09T19:15:18.135Z,8.80
2018-05-09T19:17:47.991Z,11.87
2018-05-09T19:20:17.617Z,8.67
2018-05-09T19:22:46.190Z,9.33
2018-05-09T19:25:14.967Z,12.50
2018-05-09T19:27:46.200Z,9.63
2018-05-09T19:30:15.867Z,9.57
2018-05-09T19:32:46.400Z,11.53
2018-05-09T19:35:15.216Z,8.87
2018-05-09T19:37:44.914Z,9.70
2018-05-09T19:40:19.237Z,9.60
2018-05-09T19:42:48.496Z,9.47
2018-05-09T19:45:18.280Z,10.47
2018-05-09T19:47:48.044Z,9.07
2018-05-09T19:50:17.419Z,13.33
2018-05-09T19:52:46.055Z,8.60
2018-05-09T19:55:14.783Z,7.30
2018-05-09T19:57:43.763Z,8.17
2018-05-09T20:00:13.128Z,8.13
2018-05-09T20:02:42.100Z,7.67
2018-05-09T20:05:10.920Z,7.40
2018-05-09T20:07:40.325Z,7.77
2018-05-09T20:10:11.352Z,10.43
2018-05-09T20:12:41.306Z,8.70
2018-05-09T20:15:10.328Z,10.30
2018-05-09T20:17:39.467Z,7.40
2018-05-09T20:20:09.894Z,8.07
2018-05-09T20:22:38.874Z,10.83
2018-05-09T20:25:08.532Z,11.60
2018-05-09T20:27:37.398Z,10.37
2018-05-09T20:30:12.253Z,11.70
2018-05-09T20:32:41.918Z,14.90
2018-05-09T20:35:11.782Z,9.70
2018-05-09T20:37:41.546Z,10.13
2018-05-09T20:40:11.227Z,13.63
2018-05-09T20:42:39.911Z,8.53
2018-05-09T20:45:08.873Z,9.13
2018-05-09T20:47:37.685Z,8.13
2018-05-09T20:50:06.679Z,11.90
2018-05-09T20:52:35.664Z,9.07
2018-05-09T20:58:10.425Z,10.87
2018-05-09T21:00:39.226Z,9.00
2018-05-09T21:03:07.931Z,8.97
2018-05-09T21:05:36.801Z,7.63
2018-05-09T21:08:06.918Z,7.57
2018-05-09T21:10:35.949Z,12.03
2018-05-09T21:13:04.555Z,8.90
2018-05-09T21:15:36.193Z,11.90
2018-05-09T21:18:04.983Z,9.47
2018-05-09T21:20:33.647Z,8.93
2018-05-09T21:23:02.357Z,7.63
2018-05-09T21:25:31.059Z,12.10
2018-05-09T21:28:00.048Z,7.47
2018-05-09T21:30:28.717Z,9.63
2018-05-09T21:32:57.320Z,7.40
2018-05-09T21:35:26.756Z,7.33
2018-05-09T21:37:55.670Z,7.93
2018-05-09T21:40:24.390Z,7.67
2018-05-09T21:42:53.825Z,8.37
2018-05-09T21:45:22.406Z,7.13
2018-05-09T21:47:51.009Z,7.67
2018-05-09T21:50:20.939Z,11.50
2018-05-09T21:52:49.548Z,7.87
2018-05-09T21:55:18.186Z,9.03
2018-05-09T21:57:46.755Z,8.20
2018-05-09T22:00:16.174Z,6.67
2018-05-09T22:02:45.546Z,11.63
2018-05-09T22:05:14.134Z,9.73
2018-05-09T22:07:42.789Z,7.20
2018-05-09T22:10:11.522Z,12.47
2018-05-09T22:12:40.508Z,7.33
2018-05-09T22:15:09.788Z,5.63
2018-05-09T22:17:39.423Z,8.37
2018-05-09T22:20:08.037Z,8.30
2018-05-09T22:22:36.648Z,7.80
2018-05-09T22:25:05.337Z,6.60
2018-05-09T22:27:34.006Z,8.33
2018-05-09T22:30:02.543Z,5.73
2018-05-09T22:32:31.251Z,9.10
2018-05-09T22:34:59.912Z,7.83
2018-05-09T22:37:29.311Z,8.00
2018-05-09T22:39:57.979Z,5.87
2018-05-09T22:42:26.600Z,5.77
2018-05-09T22:44:55.412Z,9.10
2018-05-09T22:47:24.330Z,8.43
2018-05-09T22:49:53.610Z,6.00
2018-05-09T22:52:23.668Z,6.50
2018-05-09T22:54:52.556Z,8.63
2018-05-09T22:57:21.274Z,5.90
2018-05-09T22:59:50.043Z,8.93
2018-05-09T23:02:18.867Z,8.93
2018-05-09T23:04:47.625Z,6.30
2018-05-09T23:07:16.442Z,7.90
2018-05-09T23:09:45.177Z,5.97
2018-05-09T23:12:13.951Z,5.83
2018-05-09T23:14:42.656Z,8.50
2018-05-09T23:17:11.570Z,8.67
2018-05-09T23:19:42.600Z,10.43
2018-05-09T23:22:12.562Z,8.37
2018-05-09T23:24:41.303Z,7.80
2018-05-09T23:27:10.085Z,7.63
2018-05-09T23:29:39.504Z,9.83
2018-05-09T23:32:08.594Z,8.83
2018-05-09T23:34:37.363Z,8.87
2018-05-09T23:37:06.580Z,9.00
2018-05-09T23:39:35.364Z,9.83
2018-05-09T23:42:04.123Z,10.27
2018-05-09T23:44:32.656Z,9.27
2018-05-09T23:47:02.052Z,10.77
2018-05-09T23:49:32.163Z,6.87
2018-05-09T23:52:01.371Z,9.23
2018-05-09T23:54:30.976Z,8.33
2018-05-09T23:57:00.474Z,7.60
2018-05-09T23:59:29.215Z,7.60
